Airport Name : Imam Khomeini Intl

Other Name : Tehran Khomeini

ICAO : OIIE

IATA : IKA

FAA :

Latitude : 35.416111

Longitude : 51.152222

Country : Iran

Local Date and Time : 4/24/2018 3:29:00 AM

 

TAF (Terminal Aerodrome Forecast)

TAF OIIE 231700Z 2318/2424 36005MPS 6000 FEW030CB SCT035 BKN100 TEMPO 2318/2321 30010MPS TS/SHRA SCT030CB SCT035 OVC090 BECMG 2321/2323 32005MPS 7000 FEW040 TEMPO 2400/2406 32009G15MPS

 

METAR (METeorological Aerodrome Report)

OIIE 232230Z 29008KT CAVOK 10/07 Q1015

OIIE 232200Z 26008KT CAVOK 10/07 Q1014

OIIE 232100Z 29010KT CAVOK 10/07 Q1014

OIIE 232000Z 27012KT CAVOK 12/06 Q1014

OIIE 231930Z 26008KT CAVOK 11/07 Q1014

OIIE 231900Z 22008KT CAVOK 11/07 Q1013